»·PEaware :: N9895Q L52-L88

N9895Q :: L52-L88

FLIGHT INFORMATION

Flight Status: Arrived
Operator: Privately registered:
United States
More flights under this callsign
Pilot: Matthew M. (26548)
Aircraft: PIPER PA-28 CHEROKEE ARCHER
(PA28)
More flights by this aircraft type
Origin: L52 Oceano Co
United States
Destination: L88 New Cuyama
United States
More flights between these airports :: More routes between these airports
Route: L52 L88
File this flight plan on PilotEdge
Remarks: Direct
Altitude:
(Current/Filed)
7,500ft
Speed:
(Current/Filed)
120kts
Departed: 12-Oct-19 12:53 PM
Arrived: 12-Oct-19 01:39 PM
Distance/Time
Traveled:
43nm/0:46
Distance/Time
To Go:
Arrived

Flight Plot

Page will automatically refresh every two minutes.


Map Options




Map Legend


Flown Route
Filed Route
Departure Airport
Arrival Airport
Navaid (VOR, NDB)
Fix

Horizontal Profiles

Position Reports

Time Latitude Longitude Heading Altitude Ground
Speed
12-Oct-19 12:43 35.103171 -120.623697 34 17ft 0kts
12-Oct-19 12:44 35.103172 -120.623696 34 17ft 0kts
12-Oct-19 12:45 35.103173 -120.623695 34 17ft 0kts
12-Oct-19 12:46 35.103121 -120.623600 143 17ft 2kts
12-Oct-19 12:47 35.102738 -120.623697 210 17ft 0kts
12-Oct-19 12:48 35.100776 -120.621974 125 17ft 13kts
12-Oct-19 12:49 35.099120 -120.619414 51 17ft 0kts
12-Oct-19 12:50 35.099122 -120.619411 51 17ft 0kts
12-Oct-19 12:51 35.099304 -120.619260 35 17ft 0kts
12-Oct-19 12:52 35.104951 -120.627936 302 439ft 64kts
12-Oct-19 12:53 35.098735 -120.637258 137 1410ft 88kts
12-Oct-19 12:55 35.084304 -120.611909 116 2600ft 84kts
12-Oct-19 12:56 35.077226 -120.584284 94 3762ft 82kts
12-Oct-19 12:57 35.074337 -120.555211 93 4769ft 88kts
12-Oct-19 12:58 35.074592 -120.525391 68 5769ft 94kts
12-Oct-19 12:59 35.077483 -120.495076 100 6755ft 92kts
12-Oct-19 13:00 35.073611 -120.464056 96 7330ft 95kts
12-Oct-19 13:01 35.069947 -120.432299 99 7519ft 98kts
12-Oct-19 13:02 35.063657 -120.398387 101 7524ft 105kts
12-Oct-19 13:03 35.058328 -120.367004 102 6070ft 0kts
12-Oct-19 13:04 35.103170 -120.623696 34 17ft 0kts
12-Oct-19 13:19 35.041012 -120.275977 101 7491ft 104kts
12-Oct-19 13:20 35.034934 -120.241080 101 7488ft 105kts
12-Oct-19 13:21 35.028716 -120.205635 101 7513ft 115kts
12-Oct-19 13:22 35.021834 -120.165916 101 7474ft 114kts
12-Oct-19 13:23 35.015393 -120.128946 101 7467ft 111kts
12-Oct-19 13:24 35.008900 -120.091718 101 7471ft 112kts
12-Oct-19 13:25 35.002513 -120.054839 101 7469ft 108kts
12-Oct-19 13:26 34.996245 -120.019137 101 7470ft 111kts
12-Oct-19 13:27 34.989759 -119.981728 101 7472ft 110kts
12-Oct-19 13:28 34.983479 -119.945545 101 7432ft 103kts
12-Oct-19 13:29 34.977464 -119.910819 101 6700ft 103kts
12-Oct-19 13:30 34.971590 -119.876641 101 6193ft 104kts
12-Oct-19 13:31 34.964891 -119.837898 101 5371ft 123kts
12-Oct-19 13:32 34.950035 -119.800227 125 4452ft 125kts
12-Oct-19 13:33 34.930724 -119.766548 120 3790ft 113kts
12-Oct-19 13:34 34.928833 -119.730152 79 3252ft 108kts
12-Oct-19 13:35 34.930790 -119.696361 120 3144ft 99kts
12-Oct-19 13:36 34.919983 -119.669683 93 2982ft 78kts
12-Oct-19 13:37 34.932082 -119.674326 293 2431ft 70kts
12-Oct-19 13:38 34.938395 -119.690856 295 2206ft 33kts
12-Oct-19 13:39 34.939932 -119.693850 23 2206ft 0kts
12-Oct-19 13:40 34.939933 -119.693849 23 2206ft 0kts
12-Oct-19 13:41 34.939934 -119.693849 23 2206ft 0kts
12-Oct-19 13:42 34.939935 -119.693848 23 2206ft 0kts
12-Oct-19 13:43 34.939936 -119.693848 23 2206ft 0kts
12-Oct-19 13:44 34.939939 -119.693846 23 2206ft 0kts
12-Oct-19 13:45 34.938446 -119.691076 115 2206ft 26kts
12-Oct-19 13:46 34.935498 -119.683409 127 2206ft 9kts
12-Oct-19 13:47 34.939312 -119.693206 293 2394ft 83kts
12-Oct-19 13:48 34.948742 -119.717878 294 3475ft 80kts
12-Oct-19 13:49 34.958845 -119.742720 294 4436ft 82kts
12-Oct-19 13:50 34.967399 -119.768841 289 5429ft 85kts

Navigation Log

Ident Type
Flight plan parsing failed, navigation log unavailable